Time;durP1;ratioP1;P1;durP2;ratioP2;P2;SDS_P1;SDS_P2;PMS_P1;PMS_P2;Temp;Humidity;BMP_temperature;BMP_pressure;BME280_temperature;BME280_humidity;BME280_pressure;Samples;Min_cycle;Max_cycle;Signal;HPM_P1;HPM_P2
2022/01/31 00:00:08;;;;;;;2.10;0.35;;;19.70;40.80;;;;;;5073743;28;20044;-47
2022/01/31 00:02:40;;;;;;;1.40;0.20;;;19.70;40.80;;;;;;5069537;28;20066;-47
2022/01/31 00:05:08;;;;;;;0.45;0.30;;;19.70;40.80;;;;;;5073333;28;20044;-49
2022/01/31 00:07:36;;;;;;;4.28;0.73;;;19.70;40.80;;;;;;5079030;28;20044;-48
2022/01/31 00:10:08;;;;;;;2.42;0.40;;;19.70;40.80;;;;;;5074808;28;20561;-47
2022/01/31 00:12:46;;;;;;;1.65;0.30;;;19.70;40.80;;;;;;5075782;28;20063;-49
2022/01/31 00:15:15;;;;;;;2.60;0.38;;;19.70;40.70;;;;;;5071332;28;20525;-49
2022/01/31 00:17:42;;;;;;;2.30;0.43;;;19.70;40.80;;;;;;5068666;28;20037;-48
2022/01/31 00:20:10;;;;;;;3.00;0.30;;;19.70;40.70;;;;;;5073043;28;20051;-48
2022/01/31 00:22:37;;;;;;;1.67;0.40;;;19.70;40.80;;;;;;5079870;28;20041;-50
2022/01/31 00:25:04;;;;;;;3.25;0.50;;;19.70;40.70;;;;;;5071023;28;20067;-49
2022/01/31 00:27:31;;;;;;;1.48;0.30;;;19.60;40.70;;;;;;5074439;28;20054;-47
2022/01/31 00:29:58;;;;;;;3.15;0.40;;;19.70;40.70;;;;;;5070608;28;20044;-52
2022/01/31 00:32:29;;;;;;;3.22;0.68;;;19.70;40.70;;;;;;5073246;28;20449;-51
2022/01/31 00:34:56;;;;;;;3.60;0.55;;;19.70;40.70;;;;;;5067157;28;20048;-47
2022/01/31 00:37:23;;;;;;;3.63;0.63;;;19.70;40.70;;;;;;5074879;28;20504;-49
2022/01/31 00:39:51;;;;;;;2.97;0.30;;;19.70;40.70;;;;;;5069741;28;20053;-50
2022/01/31 00:42:19;;;;;;;3.33;0.30;;;19.70;40.70;;;;;;5075651;28;20047;-48
2022/01/31 00:44:51;;;;;;;3.50;0.30;;;19.60;40.70;;;;;;5069575;28;20036;-51
2022/01/31 00:47:22;;;;;;;0.60;0.55;;;19.60;40.70;;;;;;5071344;28;20123;-50
2022/01/31 00:50:03;;;;;;;2.60;0.30;;;19.60;41.20;;;;;;5070719;28;20119;-52
2022/01/31 00:52:31;;;;;;;3.17;0.43;;;19.60;40.60;;;;;;5069821;28;20048;-52
2022/01/31 00:54:58;;;;;;;1.48;0.52;;;19.60;40.70;;;;;;5073664;28;20493;-52
2022/01/31 00:57:25;;;;;;;3.78;0.20;;;19.60;40.70;;;;;;5070077;28;20040;-51
2022/01/31 00:59:53;;;;;;;2.83;0.20;;;19.60;40.70;;;;;;5068380;28;20043;-51
2022/01/31 01:02:21;;;;;;;2.50;0.50;;;19.60;40.70;;;;;;5069987;28;20040;-50
2022/01/31 01:04:50;;;;;;;4.13;0.43;;;19.60;40.70;;;;;;5077308;28;20040;-50
2022/01/31 01:07:19;;;;;;;5.25;0.30;;;19.60;40.70;;;;;;5085929;28;20140;-49
2022/01/31 01:09:47;;;;;;;1.25;0.50;;;19.60;40.70;;;;;;5077296;28;20046;-46
2022/01/31 01:12:16;;;;;;;1.80;0.25;;;19.60;40.70;;;;;;5071736;28;20121;-51
2022/01/31 01:14:43;;;;;;;0.75;0.20;;;19.60;40.70;;;;;;5071322;28;20032;-47
2022/01/31 01:17:11;;;;;;;2.15;0.30;;;19.50;40.60;;;;;;5067375;28;20072;-52
2022/01/31 01:19:38;;;;;;;2.38;0.43;;;19.60;40.70;;;;;;5075707;28;20079;-50
2022/01/31 01:22:06;;;;;;;3.50;0.50;;;19.50;40.60;;;;;;5076567;28;20850;-53
2022/01/31 01:24:34;;;;;;;1.27;0.10;;;19.60;40.60;;;;;;5069123;28;20043;-47
2022/01/31 01:27:01;;;;;;;2.25;0.30;;;19.50;40.60;;;;;;5068867;28;20122;-49
2022/01/31 01:29:28;;;;;;;1.65;0.20;;;19.50;40.60;;;;;;5067728;28;20036;-50
2022/01/31 01:31:56;;;;;;;0.35;0.22;;;19.50;40.60;;;;;;5069123;28;20048;-50
2022/01/31 01:34:32;;;;;;;0.95;0.20;;;19.50;40.70;;;;;;5080434;28;20049;-47
2022/01/31 01:37:00;;;;;;;2.05;0.40;;;19.50;40.60;;;;;;5075729;28;20044;-46
2022/01/31 01:39:29;;;;;;;1.70;0.57;;;19.50;40.60;;;;;;5068986;28;20060;-47
2022/01/31 01:41:56;;;;;;;2.17;0.40;;;19.50;40.60;;;;;;5068756;28;20048;-52
2022/01/31 01:44:38;;;;;;;1.35;0.52;;;19.50;40.60;;;;;;5067462;28;20047;-49
2022/01/31 01:47:06;;;;;;;0.65;0.65;;;19.50;40.50;;;;;;5079242;28;20049;-48
2022/01/31 01:49:33;;;;;;;1.73;0.35;;;19.50;40.60;;;;;;5081705;28;20055;-50
2022/01/31 01:52:00;;;;;;;2.95;0.20;;;19.50;40.60;;;;;;5074129;28;20135;-47
2022/01/31 01:54:29;;;;;;;2.60;0.45;;;19.40;40.50;;;;;;5080542;28;20036;-53
2022/01/31 01:56:58;;;;;;;2.40;0.38;;;19.50;40.60;;;;;;5069216;28;20048;-47
2022/01/31 01:59:25;;;;;;;0.52;0.10;;;19.40;40.50;;;;;;5064038;28;20066;-46
2022/01/31 02:02:15;;;;;;;1.30;0.25;;;19.40;40.50;;;;;;5068394;28;20150;-48
2022/01/31 02:04:43;;;;;;;1.98;0.52;;;19.40;40.60;;;;;;5075383;28;20044;-52
2022/01/31 02:07:21;;;;;;;5.95;0.22;;;19.40;40.60;;;;;;5069269;28;20120;-49
2022/01/31 02:09:54;;;;;;;3.55;0.45;;;19.40;40.60;;;;;;5072493;28;20040;-49
2022/01/31 02:12:22;;;;;;;1.42;0.20;;;19.40;40.50;;;;;;5073355;28;20129;-51
2022/01/31 02:14:49;;;;;;;2.75;0.82;;;19.40;40.60;;;;;;5053204;28;20412;-47
2022/01/31 02:17:40;;;;;;;2.10;0.17;;;19.40;40.50;;;;;;5058704;28;20092;-50
2022/01/31 02:20:14;;;;;;;1.65;0.10;;;19.40;40.60;;;;;;5054888;28;20055;-47
2022/01/31 02:22:42;;;;;;;2.17;0.55;;;19.40;40.60;;;;;;5058180;28;20463;-47
2022/01/31 02:25:32;;;;;;;2.92;0.98;;;19.40;40.60;;;;;;5049599;28;20056;-46
2022/01/31 02:28:21;;;;;;;0.45;0.10;;;19.40;40.60;;;;;;5052071;28;20044;-49
2022/01/31 02:30:48;;;;;;;3.30;0.60;;;19.40;40.60;;;;;;5050110;28;20041;-49
2022/01/31 02:33:16;;;;;;;1.55;0.28;;;19.40;40.60;;;;;;5043931;28;20467;-51
2022/01/31 02:35:43;;;;;;;1.27;0.10;;;19.40;40.60;;;;;;5044581;28;20233;-46
2022/01/31 02:38:12;;;;;;;1.05;0.20;;;19.40;40.60;;;;;;5061138;28;20040;-49
2022/01/31 02:40:44;;;;;;;1.75;0.30;;;19.40;40.60;;;;;;5047472;28;20532;-47
2022/01/31 02:43:12;;;;;;;1.10;0.10;;;19.30;40.60;;;;;;5037502;28;20043;-48
2022/01/31 02:45:39;;;;;;;2.22;0.38;;;19.30;40.60;;;;;;5036807;28;20076;-50
2022/01/31 02:48:07;;;;;;;4.65;0.13;;;19.40;40.60;;;;;;5063425;28;20183;-49
2022/01/31 02:50:34;;;;;;;2.53;0.45;;;19.40;40.60;;;;;;5063238;28;20046;-48
2022/01/31 02:53:11;;;;;;;1.48;0.13;;;19.30;40.60;;;;;;5042908;28;20057;-47
2022/01/31 02:55:42;;;;;;;2.40;0.32;;;19.40;40.70;;;;;;5069823;28;20102;-49
2022/01/31 02:58:10;;;;;;;4.47;0.20;;;19.40;40.60;;;;;;5071771;28;20844;-50
2022/01/31 03:00:39;;;;;;;1.38;1.10;;;19.40;40.70;;;;;;5075257;28;20035;-50
2022/01/31 03:03:12;;;;;;;2.90;0.20;;;19.30;40.60;;;;;;5073667;28;20131;-47
2022/01/31 03:05:39;;;;;;;2.58;0.20;;;19.40;40.70;;;;;;5074731;28;20161;-51
2022/01/31 03:08:07;;;;;;;2.58;0.10;;;19.40;40.70;;;;;;5069711;28;20036;-46
2022/01/31 03:10:35;;;;;;;1.88;0.10;;;19.30;40.60;;;;;;5075164;28;20068;-52
2022/01/31 03:13:05;;;;;;;2.05;0.10;;;19.30;40.70;;;;;;5071412;28;20040;-48
2022/01/31 03:15:37;;;;;;;0.90;0.20;;;19.30;40.70;;;;;;5087170;28;20557;-49
2022/01/31 03:18:23;;;;;;;1.75;0.32;;;19.30;40.70;;;;;;5076111;28;20032;-51
2022/01/31 03:20:50;;;;;;;3.10;0.28;;;19.30;40.70;;;;;;5071404;28;20092;-50
2022/01/31 03:23:18;;;;;;;1.13;0.32;;;19.30;40.70;;;;;;5068606;28;20044;-52
2022/01/31 03:25:46;;;;;;;0.28;0.10;;;19.30;40.70;;;;;;5075117;28;20049;-49
2022/01/31 03:28:18;;;;;;;0.75;0.17;;;19.30;40.70;;;;;;5074916;28;20195;-49
2022/01/31 03:30:45;;;;;;;1.77;0.30;;;19.30;40.70;;;;;;5089293;28;20036;-48
2022/01/31 03:33:12;;;;;;;1.20;0.43;;;19.40;40.80;;;;;;5080416;28;20040;-50
2022/01/31 03:35:40;;;;;;;1.45;0.65;;;19.30;40.80;;;;;;5083006;28;20037;-50
2022/01/31 03:38:07;;;;;;;1.55;0.20;;;19.30;40.80;;;;;;5074474;28;20037;-51
2022/01/31 03:40:34;;;;;;;1.25;0.10;;;19.40;40.90;;;;;;5073210;28;20560;-51
2022/01/31 03:43:01;;;;;;;1.20;0.10;;;19.30;40.90;;;;;;5073930;28;20051;-48
2022/01/31 03:45:33;;;;;;;1.33;0.10;;;19.40;40.90;;;;;;5075033;28;20046;-47
2022/01/31 03:48:10;;;;;;;0.85;0.20;;;19.30;40.90;;;;;;5082426;28;20797;-48
2022/01/31 03:50:38;;;;;;;1.23;0.20;;;19.30;40.90;;;;;;5077071;28;20123;-51
2022/01/31 03:53:05;;;;;;;3.67;0.30;;;19.30;40.90;;;;;;5070099;28;20076;-47
2022/01/31 03:55:32;;;;;;;0.88;0.20;;;19.30;40.90;;;;;;5081640;28;20509;-46
2022/01/31 03:58:00;;;;;;;0.90;0.20;;;19.30;40.90;;;;;;5070122;28;20384;-49
2022/01/31 04:00:33;;;;;;;1.23;0.10;;;19.30;41.00;;;;;;5074330;28;20040;-48
2022/01/31 04:03:00;;;;;;;0.32;0.15;;;19.30;41.00;;;;;;5071094;28;20148;-46
2022/01/31 04:05:27;;;;;;;1.23;0.10;;;19.30;41.00;;;;;;5070132;28;20492;-47
2022/01/31 04:07:54;;;;;;;0.85;0.20;;;19.30;41.00;;;;;;5071332;28;20044;-48
2022/01/31 04:10:21;;;;;;;0.43;0.10;;;19.30;41.60;;;;;;5072559;28;20062;-51
2022/01/31 04:12:48;;;;;;;0.95;0.13;;;19.30;41.10;;;;;;5069712;28;20427;-47
2022/01/31 04:15:15;;;;;;;0.68;0.15;;;19.30;41.10;;;;;;5072966;28;20116;-49
2022/01/31 04:17:44;;;;;;;2.50;0.10;;;19.30;41.10;;;;;;5069307;28;20059;-49
2022/01/31 04:20:11;;;;;;;1.17;0.10;;;19.30;41.20;;;;;;5072722;28;20056;-48
2022/01/31 04:22:45;;;;;;;0.88;0.10;;;19.30;41.20;;;;;;5071388;28;20773;-45
2022/01/31 04:25:27;;;;;;;1.75;0.30;;;19.30;41.20;;;;;;5074136;28;20424;-52
2022/01/31 04:28:01;;;;;;;0.70;0.60;;;19.30;41.20;;;;;;5079229;28;20032;-47
2022/01/31 04:30:29;;;;;;;0.20;0.10;;;19.30;41.20;;;;;;5070903;28;20044;-47
2022/01/31 04:32:58;;;;;;;0.52;0.20;;;19.30;41.30;;;;;;5070315;28;20063;-50
2022/01/31 04:35:25;;;;;;;1.10;0.10;;;19.30;41.30;;;;;;5070333;28;20052;-50
2022/01/31 04:37:52;;;;;;;1.70;0.28;;;19.30;41.30;;;;;;5074684;28;20042;-48
2022/01/31 04:40:19;;;;;;;1.13;0.10;;;19.30;41.30;;;;;;5070698;28;20076;-48
2022/01/31 04:42:47;;;;;;;0.63;0.30;;;19.30;41.40;;;;;;5074046;28;20481;-49
2022/01/31 04:45:14;;;;;;;0.63;0.20;;;19.30;41.40;;;;;;5072340;28;20127;-47
2022/01/31 04:47:41;;;;;;;1.05;0.00;;;19.30;41.40;;;;;;5081564;28;20044;-51
2022/01/31 04:50:10;;;;;;;0.68;0.10;;;19.30;41.40;;;;;;5068736;28;20086;-49
2022/01/31 04:52:38;;;;;;;1.58;0.08;;;19.30;41.50;;;;;;5073410;28;20041;-50
2022/01/31 04:55:07;;;;;;;0.77;0.10;;;19.30;41.50;;;;;;5070652;28;20052;-48
2022/01/31 04:57:34;;;;;;;1.25;0.45;;;19.30;41.50;;;;;;5072813;28;20097;-50
2022/01/31 05:00:01;;;;;;;0.30;0.10;;;19.30;41.50;;;;;;5070841;28;20039;-47
2022/01/31 05:02:29;;;;;;;0.40;0.20;;;19.30;41.50;;;;;;5070250;28;20055;-48
2022/01/31 05:04:56;;;;;;;0.82;0.40;;;19.30;41.50;;;;;;5070310;28;20044;-53
2022/01/31 05:07:25;;;;;;;2.55;0.32;;;19.30;41.60;;;;;;5069710;28;20041;-56
2022/01/31 05:09:52;;;;;;;0.52;0.52;;;19.30;41.60;;;;;;5074139;28;20047;-47
2022/01/31 05:12:19;;;;;;;0.52;0.00;;;19.30;41.60;;;;;;5069992;28;20076;-44
2022/01/31 05:14:46;;;;;;;1.20;0.10;;;19.30;41.60;;;;;;5070373;28;20047;-49
2022/01/31 05:17:13;;;;;;;0.20;0.00;;;19.30;41.70;;;;;;5071792;28;20094;-44
2022/01/31 05:19:40;;;;;;;1.52;0.20;;;19.30;41.70;;;;;;5078633;28;20576;-51
2022/01/31 05:22:07;;;;;;;0.77;0.00;;;19.30;41.70;;;;;;5069280;28;20381;-47
2022/01/31 05:24:35;;;;;;;0.43;0.10;;;19.30;41.70;;;;;;5073290;28;20607;-46
2022/01/31 05:27:03;;;;;;;0.10;0.10;;;19.30;41.70;;;;;;5069965;28;20048;-48
2022/01/31 05:29:30;;;;;;;0.30;0.20;;;19.30;41.80;;;;;;5071575;28;20037;-50
2022/01/31 05:31:56;;;;;;;0.57;0.10;;;19.30;41.80;;;;;;5070229;28;20048;-44
2022/01/31 05:34:24;;;;;;;2.55;0.22;;;19.30;41.80;;;;;;5070597;28;20040;-48
2022/01/31 05:36:54;;;;;;;1.65;0.10;;;19.30;41.80;;;;;;5076477;28;20466;-47
2022/01/31 05:39:23;;;;;;;0.80;0.25;;;19.30;41.80;;;;;;5078294;28;20397;-47
2022/01/31 05:41:52;;;;;;;1.15;0.20;;;19.30;41.80;;;;;;5068121;28;20048;-47
2022/01/31 05:44:19;;;;;;;0.70;0.00;;;19.30;41.80;;;;;;5083828;28;20532;-49
2022/01/31 05:46:46;;;;;;;0.52;0.03;;;19.30;41.80;;;;;;5070930;28;20669;-49
2022/01/31 05:49:14;;;;;;;1.02;0.10;;;19.30;41.80;;;;;;5070637;28;20056;-46
2022/01/31 05:51:57;;;;;;;0.68;0.10;;;19.30;41.80;;;;;;5071362;28;20122;-48
2022/01/31 05:54:25;;;;;;;0.32;0.10;;;19.30;41.80;;;;;;5069048;28;20123;-50
2022/01/31 05:56:53;;;;;;;0.77;0.20;;;19.30;41.80;;;;;;5071319;28;20105;-47
2022/01/31 05:59:21;;;;;;;1.20;0.30;;;19.30;41.80;;;;;;5068473;28;20397;-50
2022/01/31 06:01:47;;;;;;;1.75;0.73;;;19.30;41.80;;;;;;5075223;28;20955;-47
2022/01/31 06:04:15;;;;;;;1.17;0.13;;;19.30;41.80;;;;;;5069366;28;20409;-50
2022/01/31 06:06:42;;;;;;;0.45;0.08;;;19.30;41.80;;;;;;5072671;28;20036;-48
2022/01/31 06:09:09;;;;;;;2.17;0.10;;;19.30;41.80;;;;;;5069416;28;20565;-53
2022/01/31 06:11:36;;;;;;;0.77;0.10;;;19.30;41.80;;;;;;5070717;28;20036;-51
2022/01/31 06:14:07;;;;;;;1.27;0.10;;;19.30;41.80;;;;;;5068541;28;20468;-50
2022/01/31 06:16:34;;;;;;;2.03;0.00;;;19.30;41.80;;;;;;5078277;28;20049;-47
2022/01/31 06:19:01;;;;;;;0.68;0.03;;;19.30;41.80;;;;;;5080047;28;20040;-51
2022/01/31 06:21:29;;;;;;;0.88;0.15;;;19.30;41.80;;;;;;5073197;28;20067;-54
2022/01/31 06:23:56;;;;;;;0.45;0.00;;;19.30;41.80;;;;;;5072496;28;20040;-51
2022/01/31 06:26:23;;;;;;;3.20;0.50;;;19.20;41.70;;;;;;5073371;28;20044;-51
2022/01/31 06:29:09;;;;;;;0.95;0.10;;;19.30;41.80;;;;;;5074370;28;20049;-52
2022/01/31 06:31:43;;;;;;;1.38;0.20;;;19.20;41.70;;;;;;5073766;28;20683;-53
2022/01/31 06:34:10;;;;;;;1.33;0.00;;;19.20;41.70;;;;;;5077531;28;20040;-49
2022/01/31 06:36:37;;;;;;;1.00;0.10;;;19.20;41.70;;;;;;5072830;28;20055;-51
2022/01/31 06:39:05;;;;;;;0.10;0.00;;;19.20;41.70;;;;;;5070391;28;20139;-52
2022/01/31 06:41:33;;;;;;;1.30;0.10;;;19.20;41.70;;;;;;5071697;28;20135;-51
2022/01/31 06:44:00;;;;;;;0.25;0.00;;;19.20;41.70;;;;;;5077410;28;20053;-48
2022/01/31 06:46:28;;;;;;;0.82;0.10;;;19.20;41.70;;;;;;5074008;28;20045;-51
2022/01/31 06:48:55;;;;;;;0.10;0.10;;;19.20;41.70;;;;;;5089015;28;20068;-50
2022/01/31 06:51:22;;;;;;;1.00;0.10;;;19.20;41.70;;;;;;5066089;28;20040;-46
2022/01/31 06:53:49;;;;;;;0.13;0.03;;;19.20;41.70;;;;;;5073555;28;20125;-50
2022/01/31 06:56:17;;;;;;;0.10;0.10;;;19.20;41.70;;;;;;5069531;28;20851;-46
2022/01/31 06:58:44;;;;;;;1.08;0.00;;;19.20;41.70;;;;;;5077602;28;20573;-52
2022/01/31 07:01:11;;;;;;;0.20;0.10;;;19.20;41.70;;;;;;5078325;28;20036;-51
2022/01/31 07:03:40;;;;;;;0.17;0.10;;;19.20;41.70;;;;;;5071497;28;20424;-50
2022/01/31 07:06:07;;;;;;;0.98;0.00;;;19.20;41.70;;;;;;5073014;28;20770;-47
2022/01/31 07:08:34;;;;;;;1.42;0.10;;;19.20;41.80;;;;;;5071509;28;20101;-48
2022/01/31 07:11:01;;;;;;;0.40;0.10;;;19.20;41.70;;;;;;5077628;28;20086;-51
2022/01/31 07:13:39;;;;;;;1.00;0.10;;;19.20;41.60;;;;;;5073665;28;20044;-52
2022/01/31 07:16:06;;;;;;;0.20;0.03;;;19.20;41.70;;;;;;5076310;28;20732;-48
2022/01/31 07:18:35;;;;;;;0.35;0.10;;;19.20;41.70;;;;;;5077255;28;20028;-50
2022/01/31 07:21:05;;;;;;;0.50;0.35;;;19.20;41.70;;;;;;5073278;28;20059;-49
2022/01/31 07:23:51;;;;;;;0.10;0.10;;;19.20;41.60;;;;;;5068957;28;20064;-48
2022/01/31 07:26:18;;;;;;;0.70;0.10;;;19.20;41.60;;;;;;5072693;28;20037;-50
2022/01/31 07:28:45;;;;;;;1.75;0.00;;;19.10;41.60;;;;;;5073844;28;20286;-47
2022/01/31 07:31:13;;;;;;;1.00;0.08;;;19.20;41.70;;;;;;5074589;28;20898;-51
2022/01/31 07:33:42;;;;;;;0.47;0.10;;;19.20;41.60;;;;;;5074223;28;20127;-53
2022/01/31 07:36:11;;;;;;;0.70;0.10;;;19.20;41.60;;;;;;5071957;28;20047;-49
2022/01/31 07:38:38;;;;;;;0.70;0.10;;;19.20;41.60;;;;;;5067893;28;20047;-50
2022/01/31 07:41:06;;;;;;;0.60;0.00;;;19.20;41.60;;;;;;5073398;28;20127;-47
2022/01/31 07:43:34;;;;;;;0.45;0.10;;;19.20;41.60;;;;;;5077082;28;20159;-47
2022/01/31 07:46:01;;;;;;;1.17;0.57;;;19.10;41.50;;;;;;5072635;28;20123;-59
2022/01/31 07:48:30;;;;;;;0.10;0.10;;;19.20;41.60;;;;;;5082936;28;20068;-51
2022/01/31 07:50:57;;;;;;;0.30;0.10;;;19.10;41.50;;;;;;5075733;28;20097;-54
2022/01/31 07:53:26;;;;;;;0.30;0.00;;;19.20;41.60;;;;;;5077440;28;20043;-50
2022/01/31 07:55:53;;;;;;;0.82;0.10;;;19.10;41.50;;;;;;5068588;28;20106;-50
2022/01/31 07:58:20;;;;;;;1.38;0.45;;;19.10;41.50;;;;;;5074676;28;20049;-48
2022/01/31 08:00:48;;;;;;;0.50;0.17;;;19.20;41.50;;;;;;5077356;28;20127;-50
2022/01/31 08:03:15;;;;;;;0.25;0.10;;;19.10;41.50;;;;;;5071578;28;20047;-52
2022/01/31 08:05:42;;;;;;;0.32;0.10;;;19.20;41.50;;;;;;5068745;28;20882;-51
2022/01/31 08:08:09;;;;;;;2.65;0.10;;;19.10;41.40;;;;;;5072276;28;20045;-47
2022/01/31 08:10:39;;;;;;;0.80;0.10;;;19.10;41.50;;;;;;5074005;28;20397;-54
2022/01/31 08:13:08;;;;;;;1.10;0.10;;;19.20;41.50;;;;;;5073001;28;20109;-49
2022/01/31 08:15:45;;;;;;;1.30;0.10;;;19.20;41.50;;;;;;5076027;28;20047;-47
2022/01/31 08:18:12;;;;;;;0.20;0.10;;;19.20;41.50;;;;;;5071001;28;20036;-47
2022/01/31 08:20:39;;;;;;;1.45;0.45;;;19.20;41.40;;;;;;5068310;28;20113;-48
2022/01/31 08:23:07;;;;;;;3.33;0.10;;;19.20;41.40;;;;;;5072082;28;20040;-50
2022/01/31 08:25:36;;;;;;;0.20;0.10;;;19.20;41.40;;;;;;5075652;28;20059;-50
2022/01/31 08:28:09;;;;;;;1.77;0.20;;;19.20;41.40;;;;;;5070968;28;20040;-49
2022/01/31 08:30:44;;;;;;;4.40;0.40;;;19.20;41.40;;;;;;5073526;28;20036;-49
2022/01/31 08:33:25;;;;;;;0.30;0.10;;;19.20;41.40;;;;;;5070442;28;20572;-53
2022/01/31 08:35:52;;;;;;;1.08;0.00;;;19.20;41.40;;;;;;5071403;28;20047;-48
2022/01/31 08:38:19;;;;;;;2.40;0.10;;;19.20;41.40;;;;;;5074147;28;20078;-45
2022/01/31 08:40:47;;;;;;;0.57;0.15;;;19.20;41.40;;;;;;5075266;28;20048;-56
2022/01/31 08:43:17;;;;;;;2.92;0.30;;;19.20;41.40;;;;;;5074885;28;20036;-47
2022/01/31 08:45:44;;;;;;;0.70;0.00;;;19.20;41.40;;;;;;5070882;28;20086;-47
2022/01/31 08:48:11;;;;;;;0.20;0.00;;;19.20;41.40;;;;;;5072306;28;20036;-45
2022/01/31 08:50:38;;;;;;;1.38;0.15;;;19.20;41.30;;;;;;5069217;28;20041;-49
2022/01/31 08:53:06;;;;;;;1.10;0.20;;;19.20;41.30;;;;;;5072567;28;20040;-50
2022/01/31 08:55:33;;;;;;;1.05;0.77;;;19.20;41.30;;;;;;5071931;28;20533;-50
2022/01/31 08:58:00;;;;;;;1.08;0.10;;;19.20;41.30;;;;;;5074238;28;20418;-50
2022/01/31 09:00:34;;;;;;;1.75;0.20;;;19.30;41.30;;;;;;5073713;28;20040;-51
2022/01/31 09:03:16;;;;;;;0.82;0.30;;;19.30;41.40;;;;;;5071383;28;20435;-50
2022/01/31 09:05:44;;;;;;;3.75;0.10;;;19.20;41.20;;;;;;5068206;28;20072;-50
2022/01/31 09:08:11;;;;;;;1.05;0.75;;;19.20;41.30;;;;;;5072305;28;20037;-51
2022/01/31 09:10:39;;;;;;;1.17;0.40;;;19.20;41.20;;;;;;5067267;28;20052;-46
2022/01/31 09:13:06;;;;;;;1.55;0.20;;;19.20;41.20;;;;;;5071901;28;20415;-50
2022/01/31 09:15:35;;;;;;;1.40;0.10;;;19.20;41.50;;;;;;5072435;28;20040;-51
2022/01/31 09:18:04;;;;;;;0.88;0.38;;;19.30;41.20;;;;;;5070084;28;20040;-52
2022/01/31 09:20:31;;;;;;;5.43;0.20;;;19.30;41.20;;;;;;5066161;28;20122;-52
2022/01/31 09:22:58;;;;;;;1.38;0.20;;;19.30;41.20;;;;;;5069588;28;20051;-48
2022/01/31 09:25:28;;;;;;;0.68;0.10;;;19.30;41.20;;;;;;5075694;28;20036;-45
2022/01/31 09:27:55;;;;;;;0.40;0.15;;;19.30;41.20;;;;;;5069952;28;20041;-54
2022/01/31 09:30:23;;;;;;;1.48;0.10;;;19.40;41.20;;;;;;5072808;28;20133;-52
2022/01/31 09:32:51;;;;;;;0.35;0.10;;;19.30;41.10;;;;;;5068809;28;20503;-50
2022/01/31 09:35:18;;;;;;;1.58;0.43;;;19.40;41.10;;;;;;5070937;28;20048;-49
2022/01/31 09:37:45;;;;;;;0.98;0.45;;;19.30;41.10;;;;;;5071571;28;20052;-53
2022/01/31 09:40:18;;;;;;;4.03;0.52;;;19.40;41.10;;;;;;5074251;28;20032;-49
2022/01/31 09:43:04;;;;;;;3.25;0.17;;;19.40;41.00;;;;;;5077731;28;20128;-51
2022/01/31 09:45:51;;;;;;;3.20;0.10;;;19.40;41.00;;;;;;5073518;28;20040;-48
2022/01/31 09:48:32;;;;;;;2.88;0.20;;;19.40;41.00;;;;;;5080339;28;20500;-50
2022/01/31 09:51:00;;;;;;;2.05;0.20;;;19.40;41.00;;;;;;5066495;28;20060;-53
2022/01/31 09:53:28;;;;;;;3.05;0.10;;;19.40;41.00;;;;;;5071889;28;20559;-52
2022/01/31 09:55:55;;;;;;;0.45;0.15;;;19.40;40.90;;;;;;5066936;28;20156;-53
2022/01/31 09:58:24;;;;;;;0.57;0.10;;;19.40;40.90;;;;;;5074679;28;20041;-49
2022/01/31 10:01:06;;;;;;;0.85;0.20;;;19.40;40.90;;;;;;5071340;28;20051;-51
2022/01/31 10:03:44;;;;;;;1.70;0.20;;;19.40;40.80;;;;;;5072300;28;20060;-51
2022/01/31 10:06:19;;;;;;;1.88;0.10;;;19.40;40.80;;;;;;5069445;28;20045;-49
2022/01/31 10:08:47;;;;;;;1.17;0.20;;;19.50;40.90;;;;;;5069968;28;20048;-53
2022/01/31 10:11:27;;;;;;;0.88;0.17;;;19.40;40.80;;;;;;5066926;28;20044;-50
2022/01/31 10:16:45;;;;;;;1.60;0.20;;;19.40;40.80;;;;;;5075039;28;20036;-51
2022/01/31 10:19:13;;;;;;;1.38;0.20;;;19.40;40.70;;;;;;5072138;28;20145;-50
2022/01/31 10:22:02;;;;;;;2.38;0.43;;;19.40;40.70;;;;;;5077262;28;20131;-48
2022/01/31 10:24:30;;;;;;;1.15;0.30;;;19.50;40.70;;;;;;5072311;28;20044;-50
2022/01/31 10:26:58;;;;;;;2.75;0.30;;;19.40;40.70;;;;;;5070596;28;20087;-50
2022/01/31 10:29:26;;;;;;;1.30;0.15;;;19.50;40.70;;;;;;5080132;28;20082;-51
2022/01/31 10:32:01;;;;;;;0.93;0.20;;;19.50;40.70;;;;;;5074449;28;20040;-53
2022/01/31 10:34:31;;;;;;;3.22;0.20;;;19.60;40.70;;;;;;5078215;28;20048;-48
2022/01/31 10:37:10;;;;;;;0.57;0.20;;;19.50;41.30;;;;;;5069441;28;20127;-51
2022/01/31 10:45:35;;;;;;;2.05;0.63;;;19.60;40.60;;;;;;5069371;28;20040;-54
2022/01/31 10:54:01;;;;;;;1.83;0.10;;;19.50;40.60;;;;;;5070718;28;20904;-53
2022/01/31 10:56:37;;;;;;;1.42;0.20;;;19.50;40.60;;;;;;5065556;28;20479;-53
2022/01/31 10:59:06;;;;;;;1.88;0.68;;;19.60;40.60;;;;;;5072627;28;20052;-48
2022/01/31 11:01:34;;;;;;;0.20;0.20;;;19.60;40.60;;;;;;5071409;28;20056;-52
2022/01/31 11:04:04;;;;;;;4.80;0.20;;;19.60;40.60;;;;;;5076178;28;20047;-53
2022/01/31 11:06:34;;;;;;;1.75;0.15;;;19.60;40.60;;;;;;5077018;28;20050;-49
2022/01/31 11:09:04;;;;;;;1.77;0.20;;;19.70;40.50;;;;;;5072972;28;20142;-54
2022/01/31 11:11:32;;;;;;;1.60;0.30;;;19.70;40.50;;;;;;5068582;28;20040;-51
2022/01/31 11:14:01;;;;;;;0.60;0.10;;;19.70;40.40;;;;;;5075567;28;20463;-52
2022/01/31 11:16:28;;;;;;;2.28;0.35;;;19.70;40.40;;;;;;5078842;28;20513;-54
2022/01/31 11:19:00;;;;;;;0.68;0.20;;;19.70;40.30;;;;;;5077102;28;20121;-51
2022/01/31 11:21:31;;;;;;;1.85;0.10;;;19.70;40.30;;;;;;5071952;28;20527;-53
2022/01/31 11:24:02;;;;;;;0.77;0.32;;;19.70;40.20;;;;;;5070962;28;20044;-53
2022/01/31 11:26:39;;;;;;;2.58;0.40;;;19.80;40.30;;;;;;5067525;28;20513;-51
2022/01/31 11:29:07;;;;;;;1.17;0.10;;;19.80;40.30;;;;;;5069905;28;20051;-50
2022/01/31 11:31:37;;;;;;;2.03;0.20;;;19.80;40.20;;;;;;5077313;28;20051;-50
2022/01/31 11:34:05;;;;;;;2.10;0.40;;;19.80;40.20;;;;;;5077472;28;20892;-52
2022/01/31 11:36:34;;;;;;;1.27;0.28;;;19.80;40.10;;;;;;5072124;28;20048;-52
2022/01/31 11:39:07;;;;;;;1.15;0.10;;;19.80;40.00;;;;;;5071882;28;20048;-51
2022/01/31 11:41:35;;;;;;;1.25;0.10;;;19.80;40.00;;;;;;5080132;28;20036;-50
2022/01/31 11:44:11;;;;;;;0.57;0.20;;;19.80;40.00;;;;;;5071145;28;20032;-52
2022/01/31 11:46:40;;;;;;;1.25;0.10;;;19.80;40.00;;;;;;5071759;28;20040;-51
2022/01/31 11:49:13;;;;;;;1.30;0.50;;;19.90;40.10;;;;;;5076768;28;20040;-50
2022/01/31 11:52:00;;;;;;;0.63;0.30;;;19.90;40.00;;;;;;5073056;28;20676;-48
2022/01/31 11:54:29;;;;;;;0.63;0.10;;;19.90;39.90;;;;;;5078281;28;20687;-51
2022/01/31 11:56:57;;;;;;;2.15;0.10;;;19.90;39.90;;;;;;5070023;28;20043;-51
2022/01/31 11:59:24;;;;;;;2.58;0.47;;;19.90;39.90;;;;;;5072898;28;20041;-53
2022/01/31 12:01:53;;;;;;;1.30;0.20;;;19.90;39.90;;;;;;5073377;28;20059;-52
2022/01/31 12:04:23;;;;;;;0.32;0.10;;;19.90;39.90;;;;;;5074798;28;20416;-52
2022/01/31 12:06:50;;;;;;;1.40;0.20;;;19.90;39.80;;;;;;5076341;28;20131;-52
2022/01/31 12:09:21;;;;;;;2.30;0.47;;;20.00;39.80;;;;;;5071623;28;20463;-50
2022/01/31 12:12:03;;;;;;;1.10;0.10;;;20.00;39.90;;;;;;5069035;28;23064;-46
2022/01/31 12:14:42;;;;;;;2.30;0.10;;;20.00;39.90;;;;;;5067292;28;20032;-50
2022/01/31 12:17:38;;;;;;;1.35;0.10;;;20.00;39.90;;;;;;5075268;28;20055;-52
2022/01/31 12:20:15;;;;;;;1.02;0.30;;;20.10;39.90;;;;;;5067159;28;20083;-52
2022/01/31 12:22:47;;;;;;;0.93;0.20;;;20.10;40.00;;;;;;5072776;28;20044;-48
2022/01/31 12:25:27;;;;;;;4.53;0.10;;;20.20;40.00;;;;;;5077451;28;20424;-48
2022/01/31 12:27:56;;;;;;;1.48;0.20;;;20.20;39.90;;;;;;5071401;28;20170;-52
2022/01/31 12:30:32;;;;;;;4.13;0.57;;;20.20;39.90;;;;;;5073785;28;20032;-51
2022/01/31 12:33:00;;;;;;;1.52;0.43;;;20.30;39.80;;;;;;5071036;28;20028;-49
2022/01/31 12:35:37;;;;;;;1.92;0.22;;;20.30;39.80;;;;;;5082269;28;20404;-52
2022/01/31 12:38:06;;;;;;;2.72;0.17;;;20.40;39.80;;;;;;5069461;28;20048;-48
2022/01/31 12:40:40;;;;;;;2.65;0.10;;;20.40;39.70;;;;;;5074629;28;20051;-50
2022/01/31 12:43:24;;;;;;;2.70;0.20;;;20.40;39.60;;;;;;5070702;28;20646;-48
2022/01/31 12:46:06;;;;;;;0.68;0.20;;;20.40;39.50;;;;;;5073149;28;20603;-52
2022/01/31 12:48:33;;;;;;;1.80;0.10;;;20.40;39.40;;;;;;5069588;28;20033;-48
2022/01/31 12:51:15;;;;;;;1.85;0.20;;;20.40;39.40;;;;;;5071839;28;20042;-50
2022/01/31 12:53:50;;;;;;;0.35;0.20;;;20.50;39.30;;;;;;5067468;28;20040;-54
2022/01/31 12:56:30;;;;;;;1.73;0.38;;;20.40;39.20;;;;;;5070621;28;20597;-50
2022/01/31 12:59:09;;;;;;;1.05;0.20;;;20.40;39.20;;;;;;5073333;28;20041;-47
2022/01/31 13:01:38;;;;;;;1.58;0.50;;;20.40;39.20;;;;;;5073726;28;20074;-50
2022/01/31 13:04:07;;;;;;;0.63;0.20;;;20.40;39.20;;;;;;5074035;28;20044;-49
2022/01/31 13:06:40;;;;;;;1.85;0.10;;;20.40;39.10;;;;;;5075910;28;20054;-54
2022/01/31 13:09:13;;;;;;;0.50;0.10;;;20.40;39.10;;;;;;5070418;28;20044;-52
2022/01/31 13:11:43;;;;;;;3.13;0.32;;;20.40;39.10;;;;;;5067600;28;20062;-51
2022/01/31 13:14:14;;;;;;;1.95;0.38;;;20.40;39.10;;;;;;5070249;28;20832;-48
2022/01/31 13:16:47;;;;;;;0.63;0.10;;;20.40;39.10;;;;;;5073887;28;20139;-48